Time;durP1;ratioP1;P1;durP2;ratioP2;P2;SDS_P1;SDS_P2;PMS_P1;PMS_P2;Temp;Humidity;BMP_temperature;BMP_pressure;BME280_temperature;BME280_humidity;BME280_pressure;Samples;Min_cycle;Max_cycle;Signal;HPM_P1;HPM_P2
2022/06/22 00:01:17;;;;;;;5.37;4.87;;;;;;;;;;5010044;28;20234;-85
2022/06/22 00:03:46;;;;;;;5.73;5.23;;;;;;;;;;5008712;28;20174;-85
2022/06/22 00:06:19;;;;;;;6.27;5.20;;;;;;;;;;5010197;28;20230;-85
2022/06/22 00:08:46;;;;;;;7.40;5.70;;;;;;;;;;5009889;28;20186;-85
2022/06/22 00:11:13;;;;;;;5.83;5.20;;;;;;;;;;5010703;28;20186;-85
2022/06/22 00:13:44;;;;;;;5.60;5.20;;;;;;;;;;5011276;28;20174;-83
2022/06/22 00:16:19;;;;;;;5.00;4.50;;;;;;;;;;5005536;28;20201;-84
2022/06/22 00:18:46;;;;;;;7.03;5.23;;;;;;;;;;5004491;28;20225;-83
2022/06/22 00:21:14;;;;;;;6.10;5.50;;;;;;;;;;5008198;28;20296;-83
2022/06/22 00:23:41;;;;;;;7.50;5.33;;;;;;;;;;5010151;28;20182;-85
2022/06/22 00:26:26;;;;;;;6.93;5.43;;;;;;;;;;5010759;28;20248;-83
2022/06/22 00:28:51;;;;;;;6.23;5.63;;;;;;;;;;5006726;28;20203;-83
2022/06/22 00:31:20;;;;;;;5.73;5.23;;;;;;;;;;5008050;28;20192;-83
2022/06/22 00:34:00;;;;;;;6.60;5.57;;;;;;;;;;5009972;28;21623;-83
2022/06/22 00:36:27;;;;;;;9.00;6.40;;;;;;;;;;5026969;28;20227;-85
2022/06/22 00:38:52;;;;;;;6.30;5.80;;;;;;;;;;5009816;28;20172;-83
2022/06/22 00:41:22;;;;;;;7.07;5.80;;;;;;;;;;5008498;28;20197;-84
2022/06/22 00:43:47;;;;;;;6.00;5.50;;;;;;;;;;5010789;28;20171;-84
2022/06/22 00:46:18;;;;;;;7.43;5.00;;;;;;;;;;5009966;28;20214;-83
2022/06/22 00:48:44;;;;;;;5.83;5.20;;;;;;;;;;5010757;28;20240;-81
2022/06/22 00:51:18;;;;;;;8.10;6.50;;;;;;;;;;5011279;28;20185;-83
2022/06/22 00:53:51;;;;;;;6.30;5.80;;;;;;;;;;5009492;28;20233;-83
2022/06/22 00:56:21;;;;;;;5.50;5.10;;;;;;;;;;5006615;28;20209;-82
2022/06/22 00:58:56;;;;;;;5.73;4.90;;;;;;;;;;5006560;28;20182;-85
2022/06/22 01:01:26;;;;;;;6.03;5.30;;;;;;;;;;5008113;28;20180;-84
2022/06/22 01:03:59;;;;;;;5.90;5.20;;;;;;;;;;5003099;28;20177;-83
2022/06/22 01:06:32;;;;;;;6.20;5.50;;;;;;;;;;5009532;28;20183;-84
2022/06/22 01:09:04;;;;;;;5.13;4.63;;;;;;;;;;5008518;28;20181;-83
2022/06/22 01:14:24;;;;;;;6.10;5.53;;;;;;;;;;5009662;28;20229;-83
2022/06/22 01:16:51;;;;;;;7.07;5.80;;;;;;;;;;5008510;28;20211;-84
2022/06/22 01:19:23;;;;;;;6.87;5.60;;;;;;;;;;5008972;28;20263;-83
2022/06/22 01:21:54;;;;;;;8.60;6.57;;;;;;;;;;5005987;28;20180;-84
2022/06/22 01:24:20;;;;;;;8.17;6.17;;;;;;;;;;5010267;28;20263;-83
2022/06/22 01:27:04;;;;;;;6.17;5.67;;;;;;;;;;5010210;28;20342;-84
2022/06/22 01:29:29;;;;;;;7.43;6.20;;;;;;;;;;5004543;28;20186;-84
2022/06/22 01:32:02;;;;;;;8.30;6.50;;;;;;;;;;5025121;28;20190;-83
2022/06/22 01:34:32;;;;;;;6.87;6.17;;;;;;;;;;5009545;28;20180;-84
2022/06/22 01:37:00;;;;;;;7.77;6.97;;;;;;;;;;5005338;28;20230;-85
2022/06/22 01:39:25;;;;;;;10.03;6.10;;;;;;;;;;5009266;28;20182;-84
2022/06/22 01:42:04;;;;;;;6.67;6.10;;;;;;;;;;5009506;28;20190;-84
2022/06/22 01:44:38;;;;;;;7.57;6.13;;;;;;;;;;5009944;28;20240;-83
2022/06/22 01:47:25;;;;;;;7.20;6.50;;;;;;;;;;5007869;28;20203;-83
2022/06/22 01:50:20;;;;;;;7.53;6.93;;;;;;;;;;5020401;28;20253;-83
2022/06/22 01:52:48;;;;;;;9.07;6.60;;;;;;;;;;4939893;28;20255;-84
2022/06/22 01:55:25;;;;;;;9.90;6.77;;;;;;;;;;5008643;28;20261;-83
2022/06/22 01:58:00;;;;;;;6.50;5.83;;;;;;;;;;5008828;28;20187;-84
2022/06/22 02:00:25;;;;;;;7.27;6.57;;;;;;;;;;5009471;28;20186;-83
2022/06/22 02:02:50;;;;;;;6.90;6.30;;;;;;;;;;5009010;28;20235;-80
2022/06/22 02:05:25;;;;;;;7.10;6.50;;;;;;;;;;5006028;28;20184;-84
2022/06/22 02:08:09;;;;;;;6.67;6.00;;;;;;;;;;5005992;28;20188;-84
2022/06/22 02:10:40;;;;;;;6.40;5.77;;;;;;;;;;5023084;28;20189;-84
2022/06/22 02:13:25;;;;;;;7.60;6.23;;;;;;;;;;5007854;28;20271;-84
2022/06/22 02:15:54;;;;;;;7.30;6.60;;;;;;;;;;5001102;28;20220;-82
2022/06/22 02:18:30;;;;;;;6.43;5.87;;;;;;;;;;5006740;28;20231;-83
2022/06/22 02:20:57;;;;;;;6.97;6.20;;;;;;;;;;5022258;28;20246;-83
2022/06/22 02:23:29;;;;;;;14.70;5.63;;;;;;;;;;5008226;28;20370;-82
2022/06/22 02:26:00;;;;;;;6.63;5.40;;;;;;;;;;5008904;28;20187;-82
2022/06/22 02:28:26;;;;;;;7.17;5.40;;;;;;;;;;5008268;28;20282;-82
2022/06/22 02:30:51;;;;;;;9.63;5.73;;;;;;;;;;5008288;28;20279;-83
2022/06/22 02:33:17;;;;;;;6.20;5.67;;;;;;;;;;5008326;28;20185;-81
2022/06/22 02:35:43;;;;;;;6.83;6.13;;;;;;;;;;5008652;28;20205;-84
2022/06/22 02:38:09;;;;;;;6.10;5.60;;;;;;;;;;5003662;28;20195;-83
2022/06/22 02:44:29;;;;;;;7.27;6.47;;;;;;;;;;5008728;28;20276;-82
2022/06/22 02:46:11;;;;;;;7.47;6.70;;;;;;;;;;5008916;28;20209;-84
2022/06/22 02:48:37;;;;;;;16.37;6.50;;;;;;;;;;5008713;28;20226;-84
2022/06/22 02:51:08;;;;;;;11.93;6.50;;;;;;;;;;5011505;28;20213;-84
2022/06/22 02:53:35;;;;;;;7.60;5.97;;;;;;;;;;5005235;28;20193;-84
2022/06/22 02:56:01;;;;;;;6.53;5.90;;;;;;;;;;5013276;28;20212;-83
2022/06/22 02:58:28;;;;;;;8.83;6.93;;;;;;;;;;5010842;28;20249;-82
2022/06/22 03:00:54;;;;;;;10.17;7.37;;;;;;;;;;5013065;28;20199;-83
2022/06/22 03:03:20;;;;;;;7.60;6.80;;;;;;;;;;5011516;28;20211;-83
2022/06/22 03:05:48;;;;;;;8.50;6.53;;;;;;;;;;5013514;28;20180;-85
2022/06/22 03:08:14;;;;;;;7.50;6.73;;;;;;;;;;5011616;28;20257;-82
2022/06/22 03:11:00;;;;;;;16.83;7.67;;;;;;;;;;5012180;28;20183;-84
2022/06/22 03:13:31;;;;;;;8.97;7.10;;;;;;;;;;5023420;28;20188;-84
2022/06/22 03:15:56;;;;;;;9.23;7.37;;;;;;;;;;5007064;28;20205;-82
2022/06/22 03:18:26;;;;;;;9.27;7.43;;;;;;;;;;5010951;28;20235;-83
2022/06/22 03:20:53;;;;;;;18.00;6.83;;;;;;;;;;5011203;28;20183;-84
2022/06/22 03:23:24;;;;;;;8.90;7.33;;;;;;;;;;5011544;28;20179;-81
2022/06/22 03:25:53;;;;;;;6.07;5.47;;;;;;;;;;5013477;28;20187;-84
2022/06/22 03:28:25;;;;;;;7.50;6.80;;;;;;;;;;5008729;28;20179;-83
2022/06/22 03:30:56;;;;;;;6.60;6.03;;;;;;;;;;5024123;28;20184;-83
2022/06/22 03:33:26;;;;;;;7.07;6.37;;;;;;;;;;5012376;28;20241;-83
2022/06/22 03:35:53;;;;;;;7.00;6.30;;;;;;;;;;5011782;28;20208;-83
2022/06/22 03:38:20;;;;;;;6.93;5.97;;;;;;;;;;5011240;28;20230;-77
2022/06/22 03:40:51;;;;;;;6.83;6.17;;;;;;;;;;5008853;28;20189;-78
2022/06/22 03:43:28;;;;;;;6.13;5.60;;;;;;;;;;5010793;28;20189;-78
2022/06/22 03:45:57;;;;;;;7.07;6.33;;;;;;;;;;5010841;28;20186;-78
2022/06/22 03:48:32;;;;;;;7.43;6.67;;;;;;;;;;5011628;28;20176;-78
2022/06/22 03:51:07;;;;;;;6.80;6.20;;;;;;;;;;5027559;28;20262;-77
2022/06/22 03:53:46;;;;;;;7.43;6.73;;;;;;;;;;5003058;28;20219;-78
2022/06/22 03:56:13;;;;;;;6.90;6.20;;;;;;;;;;5009234;28;20207;-78
2022/06/22 03:58:41;;;;;;;8.53;6.27;;;;;;;;;;5010686;28;20214;-78
2022/06/22 04:01:06;;;;;;;7.27;6.53;;;;;;;;;;5009774;28;20176;-78
2022/06/22 04:03:31;;;;;;;6.57;5.97;;;;;;;;;;5010882;28;20172;-78
2022/06/22 04:05:57;;;;;;;8.23;5.77;;;;;;;;;;5009138;28;20183;-78
2022/06/22 04:08:39;;;;;;;10.20;6.13;;;;;;;;;;5010704;28;20180;-78
2022/06/22 04:11:06;;;;;;;6.20;5.70;;;;;;;;;;5008084;28;20257;-78
2022/06/22 04:13:35;;;;;;;7.50;5.47;;;;;;;;;;5009493;28;20183;-78
2022/06/22 04:16:22;;;;;;;6.23;5.63;;;;;;;;;;5023051;28;20203;-78
2022/06/22 04:18:52;;;;;;;7.27;5.47;;;;;;;;;;5011084;28;20233;-78
2022/06/22 04:21:19;;;;;;;6.27;5.17;;;;;;;;;;5008910;28;20193;-78
2022/06/22 04:23:46;;;;;;;9.73;5.53;;;;;;;;;;5010632;28;20184;-78
2022/06/22 04:26:24;;;;;;;5.70;5.20;;;;;;;;;;5009237;28;20183;-77
2022/06/22 04:28:51;;;;;;;6.73;5.93;;;;;;;;;;5004684;28;20187;-78
2022/06/22 04:31:22;;;;;;;5.93;4.90;;;;;;;;;;5010382;28;20193;-78
2022/06/22 04:33:50;;;;;;;8.57;4.97;;;;;;;;;;5010344;28;20191;-78
2022/06/22 04:36:39;;;;;;;6.33;5.23;;;;;;;;;;5005685;28;20208;-78
2022/06/22 04:39:07;;;;;;;6.17;4.80;;;;;;;;;;4997205;28;20188;-78
2022/06/22 04:41:37;;;;;;;6.43;5.83;;;;;;;;;;5005588;28;20177;-78
2022/06/22 04:44:16;;;;;;;5.77;5.20;;;;;;;;;;5011185;28;20442;-78
2022/06/22 04:46:43;;;;;;;5.80;4.87;;;;;;;;;;5005606;28;20190;-78
2022/06/22 04:49:16;;;;;;;6.10;5.50;;;;;;;;;;5004714;28;20211;-78
2022/06/22 04:51:46;;;;;;;7.47;5.67;;;;;;;;;;5012090;28;20182;-78
2022/06/22 04:54:17;;;;;;;6.77;5.97;;;;;;;;;;5010062;28;20218;-78
2022/06/22 04:56:44;;;;;;;6.20;5.70;;;;;;;;;;5010135;28;20612;-78
2022/06/22 04:59:12;;;;;;;6.37;5.40;;;;;;;;;;5010944;28;20186;-78
2022/06/22 05:01:43;;;;;;;5.83;5.23;;;;;;;;;;5010918;28;20181;-78
2022/06/22 05:04:18;;;;;;;6.20;5.60;;;;;;;;;;5010300;28;20172;-78
2022/06/22 05:06:55;;;;;;;9.43;5.83;;;;;;;;;;5010223;28;20211;-78
2022/06/22 05:09:26;;;;;;;7.17;5.07;;;;;;;;;;5008427;28;20193;-78
2022/06/22 05:11:51;;;;;;;5.67;5.17;;;;;;;;;;5007688;28;20212;-80
2022/06/22 05:14:20;;;;;;;5.60;5.10;;;;;;;;;;5023563;28;20220;-78
2022/06/22 05:17:05;;;;;;;5.83;5.33;;;;;;;;;;5007847;28;20203;-78
2022/06/22 05:19:35;;;;;;;8.30;6.00;;;;;;;;;;5007338;28;20196;-78
2022/06/22 05:22:00;;;;;;;5.60;5.20;;;;;;;;;;5005882;28;20200;-78
2022/06/22 05:24:34;;;;;;;5.17;4.70;;;;;;;;;;5009026;28;20222;-79
2022/06/22 05:27:00;;;;;;;6.10;5.60;;;;;;;;;;5009150;28;20187;-78
2022/06/22 05:29:36;;;;;;;8.57;6.10;;;;;;;;;;5009038;28;20221;-79
2022/06/22 05:32:04;;;;;;;5.83;5.23;;;;;;;;;;5007024;28;20203;-78
2022/06/22 05:34:31;;;;;;;10.30;6.07;;;;;;;;;;4992954;28;20183;-79
2022/06/22 05:37:01;;;;;;;6.53;5.93;;;;;;;;;;5009666;28;20203;-79
2022/06/22 05:39:26;;;;;;;6.70;5.80;;;;;;;;;;5008798;28;20190;-79
2022/06/22 05:41:53;;;;;;;7.03;5.87;;;;;;;;;;5008843;28;20190;-79
2022/06/22 05:44:19;;;;;;;7.07;6.37;;;;;;;;;;5009672;28;20185;-79
2022/06/22 05:46:49;;;;;;;7.30;5.53;;;;;;;;;;5024310;28;20183;-79
2022/06/22 05:49:15;;;;;;;6.67;6.03;;;;;;;;;;5003777;28;20197;-79
2022/06/22 05:51:43;;;;;;;6.90;6.20;;;;;;;;;;5012480;28;20196;-79
2022/06/22 05:54:29;;;;;;;8.00;5.77;;;;;;;;;;5004232;28;20180;-79
2022/06/22 05:57:00;;;;;;;6.27;5.57;;;;;;;;;;4992999;28;20220;-79
2022/06/22 05:59:29;;;;;;;9.00;5.77;;;;;;;;;;5006210;28;20183;-76
2022/06/22 06:02:00;;;;;;;7.73;5.93;;;;;;;;;;5006093;28;20218;-79
2022/06/22 06:04:34;;;;;;;6.90;6.20;;;;;;;;;;5009532;28;20339;-78
2022/06/22 06:07:01;;;;;;;7.73;6.87;;;;;;;;;;5006830;28;20200;-78
2022/06/22 06:09:28;;;;;;;7.03;6.33;;;;;;;;;;5009400;28;20185;-77
2022/06/22 06:12:13;;;;;;;6.50;5.77;;;;;;;;;;5006969;28;20190;-78
2022/06/22 06:14:40;;;;;;;11.20;7.00;;;;;;;;;;5010731;28;20217;-79
2022/06/22 06:17:11;;;;;;;7.00;6.50;;;;;;;;;;5008944;28;20239;-79
2022/06/22 06:19:39;;;;;;;6.80;6.20;;;;;;;;;;5009372;28;20173;-79
2022/06/22 06:22:05;;;;;;;7.63;6.83;;;;;;;;;;5008374;28;20219;-79
2022/06/22 06:24:34;;;;;;;7.47;6.60;;;;;;;;;;5006289;28;20184;-80
2022/06/22 06:29:58;;;;;;;7.13;6.17;;;;;;;;;;5013511;28;20204;-80
2022/06/22 06:32:42;;;;;;;7.17;6.47;;;;;;;;;;5012843;28;20184;-80
2022/06/22 06:35:26;;;;;;;6.83;6.17;;;;;;;;;;5011219;28;20218;-80
2022/06/22 06:38:10;;;;;;;7.40;6.33;;;;;;;;;;5006898;28;20204;-81
2022/06/22 06:40:41;;;;;;;7.67;6.97;;;;;;;;;;5006979;28;20285;-81
2022/06/22 06:43:25;;;;;;;8.47;7.57;;;;;;;;;;5013389;28;20244;-81
2022/06/22 06:45:52;;;;;;;6.30;5.80;;;;;;;;;;5013204;28;20189;-80
2022/06/22 06:48:21;;;;;;;8.00;7.30;;;;;;;;;;5013452;28;20190;-82
2022/06/22 06:50:48;;;;;;;7.57;6.80;;;;;;;;;;5006190;28;20210;-82
2022/06/22 06:53:25;;;;;;;7.73;7.00;;;;;;;;;;5011808;28;20211;-81
2022/06/22 06:56:13;;;;;;;8.17;7.50;;;;;;;;;;5011761;28;20256;-81
2022/06/22 06:59:08;;;;;;;7.70;6.80;;;;;;;;;;5007535;28;20190;-81
2022/06/22 07:01:35;;;;;;;7.10;6.57;;;;;;;;;;5004814;28;20188;-82
2022/06/22 07:04:08;;;;;;;7.97;7.07;;;;;;;;;;5012589;28;20185;-82
2022/06/22 07:06:34;;;;;;;8.37;7.37;;;;;;;;;;5012227;28;20178;-82
2022/06/22 07:09:15;;;;;;;7.77;7.07;;;;;;;;;;5012140;28;20190;-81
2022/06/22 07:11:48;;;;;;;6.97;6.37;;;;;;;;;;5012163;28;20335;-81
2022/06/22 07:14:26;;;;;;;9.00;7.00;;;;;;;;;;5012764;28;20211;-81
2022/06/22 07:16:52;;;;;;;6.60;5.90;;;;;;;;;;5011979;28;20266;-81
2022/06/22 07:19:20;;;;;;;6.33;5.70;;;;;;;;;;5012154;28;20241;-81
2022/06/22 07:21:50;;;;;;;8.63;5.87;;;;;;;;;;5010155;28;20219;-82
2022/06/22 07:24:16;;;;;;;8.27;7.40;;;;;;;;;;5011025;28;20184;-82
2022/06/22 07:26:41;;;;;;;6.63;5.97;;;;;;;;;;5012299;28;20255;-81
2022/06/22 07:29:25;;;;;;;6.73;6.10;;;;;;;;;;5011893;28;20190;-83
2022/06/22 07:31:57;;;;;;;7.67;6.97;;;;;;;;;;5016270;28;20478;-82
2022/06/22 07:34:29;;;;;;;7.50;6.90;;;;;;;;;;5013198;28;20267;-82
2022/06/22 07:36:56;;;;;;;8.73;5.97;;;;;;;;;;5015313;28;20296;-82
2022/06/22 07:39:28;;;;;;;9.20;7.13;;;;;;;;;;5011757;28;20493;-82
2022/06/22 07:41:53;;;;;;;7.00;6.40;;;;;;;;;;5011531;28;20182;-82
2022/06/22 07:44:20;;;;;;;7.80;7.07;;;;;;;;;;5011773;28;20178;-82
2022/06/22 07:47:06;;;;;;;7.53;6.93;;;;;;;;;;5016775;28;20195;-82
2022/06/22 07:49:34;;;;;;;7.53;6.83;;;;;;;;;;5011041;28;20174;-81
2022/06/22 07:52:01;;;;;;;7.53;6.80;;;;;;;;;;5010000;28;20257;-82
2022/06/22 07:54:32;;;;;;;10.23;6.97;;;;;;;;;;5005158;28;20198;-81
2022/06/22 07:57:12;;;;;;;7.90;7.23;;;;;;;;;;5011780;28;20210;-80
2022/06/22 07:59:42;;;;;;;8.57;7.67;;;;;;;;;;5010367;28;20217;-81
2022/06/22 08:02:13;;;;;;;10.30;7.37;;;;;;;;;;5007596;28;20184;-81
2022/06/22 08:04:40;;;;;;;8.27;7.47;;;;;;;;;;5010988;28;20169;-81
2022/06/22 08:07:12;;;;;;;8.47;7.77;;;;;;;;;;5011792;28;20276;-82
2022/06/22 08:09:44;;;;;;;8.63;7.83;;;;;;;;;;5010123;28;20230;-82
2022/06/22 08:12:15;;;;;;;8.97;8.07;;;;;;;;;;5011212;28;20215;-82
2022/06/22 08:14:41;;;;;;;9.20;8.40;;;;;;;;;;5011601;28;20173;-82
2022/06/22 08:17:12;;;;;;;8.67;7.83;;;;;;;;;;5010545;28;20289;-81
2022/06/22 08:19:38;;;;;;;8.07;7.23;;;;;;;;;;5011129;28;20187;-82
2022/06/22 08:22:04;;;;;;;8.10;7.30;;;;;;;;;;5011928;28;20176;-81
2022/06/22 08:24:32;;;;;;;9.30;7.97;;;;;;;;;;5010218;28;20177;-81
2022/06/22 08:26:59;;;;;;;7.73;7.13;;;;;;;;;;5013477;28;20496;-81
2022/06/22 08:29:26;;;;;;;8.47;7.70;;;;;;;;;;5010298;28;20498;-81
2022/06/22 08:31:57;;;;;;;8.23;7.37;;;;;;;;;;5010726;28;20180;-81
2022/06/22 08:34:27;;;;;;;8.63;7.93;;;;;;;;;;5010849;28;20189;-81
2022/06/22 08:36:55;;;;;;;9.40;8.50;;;;;;;;;;5016442;28;20238;-81
2022/06/22 08:39:53;;;;;;;8.97;8.00;;;;;;;;;;5011632;28;20176;-82
2022/06/22 08:42:37;;;;;;;8.27;7.47;;;;;;;;;;4978045;28;20195;-81
2022/06/22 08:45:11;;;;;;;8.87;8.03;;;;;;;;;;4996545;28;20188;-82
2022/06/22 08:47:42;;;;;;;9.07;8.17;;;;;;;;;;5002568;28;20178;-81
2022/06/22 08:50:19;;;;;;;8.90;8.10;;;;;;;;;;5010837;28;20190;-82
2022/06/22 08:52:45;;;;;;;10.30;8.77;;;;;;;;;;5010763;28;20185;-81
2022/06/22 08:55:22;;;;;;;10.17;8.10;;;;;;;;;;5010358;28;20332;-81
2022/06/22 08:57:57;;;;;;;9.47;8.03;;;;;;;;;;5009953;28;20504;-81
2022/06/22 09:00:28;;;;;;;10.17;9.07;;;;;;;;;;5009609;28;20346;-82
2022/06/22 09:02:59;;;;;;;8.60;7.90;;;;;;;;;;5006506;28;20177;-81
2022/06/22 09:05:25;;;;;;;7.90;7.23;;;;;;;;;;5011690;28;20206;-82
2022/06/22 09:07:52;;;;;;;9.30;7.80;;;;;;;;;;5010340;28;20181;-81
2022/06/22 09:10:36;;;;;;;8.70;7.80;;;;;;;;;;5010528;28;20186;-81
2022/06/22 09:13:01;;;;;;;7.77;7.07;;;;;;;;;;5007723;28;20186;-81
2022/06/22 09:15:42;;;;;;;8.23;7.53;;;;;;;;;;5010415;28;20195;-82
2022/06/22 09:18:07;;;;;;;7.67;6.90;;;;;;;;;;5010067;28;20217;-82
2022/06/22 09:20:35;;;;;;;9.13;8.17;;;;;;;;;;5008378;28;20182;-82
2022/06/22 09:23:19;;;;;;;13.63;8.37;;;;;;;;;;5011149;28;20187;-81
2022/06/22 09:25:54;;;;;;;9.07;8.17;;;;;;;;;;5007547;28;20193;-81
2022/06/22 09:28:37;;;;;;;8.00;7.20;;;;;;;;;;5024483;28;20188;-79
2022/06/22 09:31:29;;;;;;;10.20;7.63;;;;;;;;;;5010077;28;20190;-81
2022/06/22 09:34:17;;;;;;;9.20;8.37;;;;;;;;;;4988591;28;20219;-82
2022/06/22 09:36:48;;;;;;;8.63;7.80;;;;;;;;;;4997017;28;20256;-81
2022/06/22 09:39:13;;;;;;;8.60;7.73;;;;;;;;;;5010030;28;20197;-81
2022/06/22 09:41:57;;;;;;;7.83;7.00;;;;;;;;;;5010356;28;20421;-82
2022/06/22 09:44:33;;;;;;;7.75;7.05;;;;;;;;;;5009456;28;20246;-81
2022/06/22 09:47:04;;;;;;;7.82;7.05;;;;;;;;;;5009865;28;20271;-82
2022/06/22 09:49:42;;;;;;;7.97;7.25;;;;;;;;;;5010612;28;20175;-82
2022/06/22 09:52:17;;;;;;;9.18;8.10;;;;;;;;;;5010200;28;20190;-81
2022/06/22 09:58:04;;;;;;;8.93;8.13;;;;;;;;;;5005283;28;20189;-82
2022/06/22 10:00:29;;;;;;;9.15;8.20;;;;;;;;;;5008496;28;20178;-82
2022/06/22 10:03:02;;;;;;;9.63;8.43;;;;;;;;;;5011088;28;20181;-82
2022/06/22 10:05:43;;;;;;;10.60;9.50;;;;;;;;;;5013177;28;20277;-82
2022/06/22 10:08:23;;;;;;;10.18;9.18;;;;;;;;;;5011452;28;20179;-81
2022/06/22 10:11:01;;;;;;;9.90;9.10;;;;;;;;;;5008039;28;20209;-82
2022/06/22 10:13:32;;;;;;;9.93;9.03;;;;;;;;;;5011702;28;20213;-81
2022/06/22 10:16:05;;;;;;;10.63;9.73;;;;;;;;;;5014249;28;20191;-81
2022/06/22 10:18:48;;;;;;;10.52;9.63;;;;;;;;;;5011247;28;20223;-82
2022/06/22 10:21:32;;;;;;;9.77;9.00;;;;;;;;;;5010741;28;20171;-82
2022/06/22 10:23:58;;;;;;;11.07;10.13;;;;;;;;;;5018474;28;20180;-81
2022/06/22 10:26:41;;;;;;;11.18;10.27;;;;;;;;;;5012358;28;20214;-78
2022/06/22 10:29:07;;;;;;;10.60;9.50;;;;;;;;;;5003320;28;20293;-81
2022/06/22 10:31:32;;;;;;;11.60;10.50;;;;;;;;;;5010640;28;20262;-82
2022/06/22 10:34:12;;;;;;;12.10;10.90;;;;;;;;;;5008989;28;20441;-81
2022/06/22 10:36:46;;;;;;;11.13;10.00;;;;;;;;;;5009259;28;20602;-81
2022/06/22 10:39:30;;;;;;;10.82;9.90;;;;;;;;;;5013392;28;20174;-81
2022/06/22 10:45:11;;;;;;;10.30;9.40;;;;;;;;;;5011387;28;20193;-81
2022/06/22 10:47:54;;;;;;;10.20;9.38;;;;;;;;;;5004568;28;20186;-79
2022/06/22 10:50:26;;;;;;;11.90;10.80;;;;;;;;;;5007235;28;20175;-80
2022/06/22 10:53:01;;;;;;;12.17;10.93;;;;;;;;;;5008261;28;20177;-81
2022/06/22 10:55:46;;;;;;;11.67;10.63;;;;;;;;;;5010243;28;20230;-79
2022/06/22 10:58:30;;;;;;;10.93;9.93;;;;;;;;;;5007990;28;20207;-79
2022/06/22 11:00:58;;;;;;;11.13;10.13;;;;;;;;;;5006421;28;20239;-79
2022/06/22 11:03:38;;;;;;;11.32;10.25;;;;;;;;;;5008838;28;20214;-79
2022/06/22 11:06:10;;;;;;;10.53;9.63;;;;;;;;;;5009710;28;20193;-78
2022/06/22 11:08:38;;;;;;;13.03;9.63;;;;;;;;;;5009889;28;20179;-79
2022/06/22 11:11:21;;;;;;;10.50;9.60;;;;;;;;;;5012776;28;20179;-79
2022/06/22 11:13:52;;;;;;;11.10;10.00;;;;;;;;;;5011186;28;20186;-80
2022/06/22 11:16:36;;;;;;;10.90;9.67;;;;;;;;;;4999918;28;20265;-79
2022/06/22 11:19:21;;;;;;;9.63;8.83;;;;;;;;;;5011617;28;20432;-80
2022/06/22 11:22:05;;;;;;;9.55;8.60;;;;;;;;;;5011764;28;20197;-80
2022/06/22 11:24:49;;;;;;;9.97;8.97;;;;;;;;;;5024161;28;20214;-80
2022/06/22 11:33:02;;;;;;;8.93;7.23;;;;;;;;;;5008294;28;20200;-79
2022/06/22 11:35:39;;;;;;;9.30;7.53;;;;;;;;;;5007817;28;20216;-80
2022/06/22 11:38:23;;;;;;;8.80;7.60;;;;;;;;;;5010764;28;20202;-79
2022/06/22 11:40:51;;;;;;;8.17;7.37;;;;;;;;;;5006380;28;20192;-79
2022/06/22 11:43:19;;;;;;;9.37;7.13;;;;;;;;;;5006699;28;20186;-79
2022/06/22 11:46:05;;;;;;;11.23;7.27;;;;;;;;;;5010666;28;20190;-79
2022/06/22 11:48:34;;;;;;;10.67;7.30;;;;;;;;;;5005784;28;20187;-79
2022/06/22 11:51:18;;;;;;;9.20;6.80;;;;;;;;;;5010651;28;20198;-79
2022/06/22 11:53:46;;;;;;;9.27;6.70;;;;;;;;;;5008519;28;20185;-79
2022/06/22 11:56:31;;;;;;;8.20;5.70;;;;;;;;;;5011493;28;20234;-79
2022/06/22 11:59:19;;;;;;;8.13;5.80;;;;;;;;;;5009108;28;20191;-79
2022/06/22 12:01:58;;;;;;;8.20;5.80;;;;;;;;;;5007026;28;20191;-79
2022/06/22 12:04:23;;;;;;;8.80;5.50;;;;;;;;;;5009173;28;20189;-79
2022/06/22 12:06:48;;;;;;;10.23;4.80;;;;;;;;;;5006994;28;20198;-79
2022/06/22 12:09:32;;;;;;;8.40;5.40;;;;;;;;;;5009791;28;20265;-79
2022/06/22 12:12:36;;;;;;;8.67;5.30;;;;;;;;;;5024533;28;20427;-79
2022/06/22 12:15:09;;;;;;;6.87;5.17;;;;;;;;;;4970108;28;20186;-79
2022/06/22 12:17:34;;;;;;;8.77;5.17;;;;;;;;;;4972264;28;20346;-78
2022/06/22 12:20:02;;;;;;;9.43;4.87;;;;;;;;;;4993218;28;20253;-79
2022/06/22 12:22:38;;;;;;;11.63;5.47;;;;;;;;;;5006849;28;20182;-78
2022/06/22 12:25:21;;;;;;;9.50;5.17;;;;;;;;;;5009965;28;20188;-78
2022/06/22 12:28:08;;;;;;;8.80;4.23;;;;;;;;;;5007213;28;20210;-79
2022/06/22 12:30:38;;;;;;;11.43;4.47;;;;;;;;;;5004585;28;20175;-79
2022/06/22 12:33:18;;;;;;;12.90;4.83;;;;;;;;;;5006513;28;20188;-78
2022/06/22 12:35:44;;;;;;;9.13;3.83;;;;;;;;;;5007942;28;20212;-78
2022/06/22 12:38:16;;;;;;;8.90;5.00;;;;;;;;;;5009787;28;20198;-79
2022/06/22 12:40:56;;;;;;;7.47;3.67;;;;;;;;;;5008974;28;20179;-79
2022/06/22 12:43:21;;;;;;;8.70;4.03;;;;;;;;;;5009722;28;20254;-79
2022/06/22 12:45:54;;;;;;;9.27;4.00;;;;;;;;;;5007011;28;20269;-79
2022/06/22 12:48:28;;;;;;;10.70;4.67;;;;;;;;;;5025344;28;20195;-84
2022/06/22 12:51:08;;;;;;;9.57;4.27;;;;;;;;;;5003496;28;20185;-79
2022/06/22 12:53:47;;;;;;;7.83;4.00;;;;;;;;;;5010216;28;22155;-79
2022/06/22 12:56:19;;;;;;;5.57;3.60;;;;;;;;;;5006462;28;20294;-79
2022/06/22 12:59:00;;;;;;;9.63;4.10;;;;;;;;;;5020838;28;20178;-79
2022/06/22 13:01:25;;;;;;;9.03;4.27;;;;;;;;;;5009900;28;20233;-79
2022/06/22 13:03:54;;;;;;;10.30;3.57;;;;;;;;;;5006873;28;20273;-78
2022/06/22 13:06:20;;;;;;;8.97;4.73;;;;;;;;;;5009031;28;20198;-79
2022/06/22 13:08:46;;;;;;;15.07;4.33;;;;;;;;;;5004275;28;20186;-79
2022/06/22 13:11:22;;;;;;;9.87;3.57;;;;;;;;;;5007355;28;20278;-79
2022/06/22 13:14:01;;;;;;;7.50;3.47;;;;;;;;;;5012059;28;20179;-79
2022/06/22 13:16:30;;;;;;;6.87;3.27;;;;;;;;;;5004808;28;20261;-79
2022/06/22 13:19:01;;;;;;;10.27;3.40;;;;;;;;;;5007367;28;20280;-79
2022/06/22 13:21:45;;;;;;;16.75;3.83;;;;;;;;;;5006713;28;20266;-79
2022/06/22 13:24:29;;;;;;;7.70;3.60;;;;;;;;;;5022865;28;20184;-80
2022/06/22 13:27:12;;;;;;;15.82;13.23;;;;;;;;;;5003598;28;20262;-80
2022/06/22 13:29:46;;;;;;;10.83;4.30;;;;;;;;;;5007462;28;20181;-79
2022/06/22 13:32:12;;;;;;;6.40;3.77;;;;;;;;;;5004422;28;20179;-80
2022/06/22 13:34:40;;;;;;;5.40;3.45;;;;;;;;;;5006492;28;20183;-81
2022/06/22 13:37:27;;;;;;;11.77;3.97;;;;;;;;;;5001259;28;20231;-80
2022/06/22 13:40:10;;;;;;;12.25;3.97;;;;;;;;;;5022788;28;20186;-80
2022/06/22 13:42:55;;;;;;;7.65;3.10;;;;;;;;;;5006170;28;20171;-81
2022/06/22 13:45:20;;;;;;;7.90;3.43;;;;;;;;;;5008467;28;20195;-81
2022/06/22 13:48:04;;;;;;;7.37;3.20;;;;;;;;;;5009424;28;20188;-82
2022/06/22 13:50:33;;;;;;;6.28;3.20;;;;;;;;;;5003433;28;20180;-81
2022/06/22 13:53:05;;;;;;;8.40;3.87;;;;;;;;;;5008645;28;20202;-81
2022/06/22 13:55:33;;;;;;;8.70;3.20;;;;;;;;;;5004486;28;20202;-81
2022/06/22 13:58:09;;;;;;;4.10;2.53;;;;;;;;;;5006352;28;20251;-81
2022/06/22 14:00:43;;;;;;;7.60;2.77;;;;;;;;;;5001166;28;20178;-81
2022/06/22 14:03:14;;;;;;;7.33;3.87;;;;;;;;;;5008210;28;20482;-81
2022/06/22 14:05:40;;;;;;;8.45;3.92;;;;;;;;;;5005547;28;20618;-80
2022/06/22 14:08:26;;;;;;;4.20;2.67;;;;;;;;;;5001669;28;20238;-81
2022/06/22 14:10:54;;;;;;;7.30;3.70;;;;;;;;;;4999585;28;20197;-81
2022/06/22 14:13:39;;;;;;;5.57;3.67;;;;;;;;;;5007982;28;20187;-81
2022/06/22 14:16:07;;;;;;;5.82;3.33;;;;;;;;;;5022606;28;20210;-81
2022/06/22 14:18:41;;;;;;;10.15;4.57;;;;;;;;;;4999000;28;20226;-81
2022/06/22 14:21:10;;;;;;;10.60;4.55;;;;;;;;;;5006280;28;20172;-82
2022/06/22 14:23:37;;;;;;;5.45;3.80;;;;;;;;;;5009873;28;20179;-82
2022/06/22 14:26:21;;;;;;;6.03;3.72;;;;;;;;;;5002361;28;20183;-81
2022/06/22 14:28:57;;;;;;;7.55;3.60;;;;;;;;;;5007126;28;20183;-81
2022/06/22 14:31:27;;;;;;;8.43;3.70;;;;;;;;;;5007766;28;20190;-80
2022/06/22 14:34:23;;;;;;;10.05;4.60;;;;;;;;;;5006889;28;20184;-80
2022/06/22 14:36:51;;;;;;;7.32;4.75;;;;;;;;;;5007166;28;20217;-82
2022/06/22 14:39:26;;;;;;;7.13;2.90;;;;;;;;;;5008213;28;20179;-81
2022/06/22 14:42:00;;;;;;;7.37;2.83;;;;;;;;;;5007389;28;20186;-83
2022/06/22 14:44:45;;;;;;;5.28;4.32;;;;;;;;;;5007298;28;20187;-82
2022/06/22 14:47:10;;;;;;;7.93;4.60;;;;;;;;;;5005816;28;20183;-82
2022/06/22 14:49:35;;;;;;;10.25;5.13;;;;;;;;;;5007544;28;20270;-82
2022/06/22 14:52:05;;;;;;;4.53;3.53;;;;;;;;;;5012045;28;20187;-82
2022/06/22 14:54:33;;;;;;;9.63;3.90;;;;;;;;;;5005166;28;20431;-82
2022/06/22 14:57:02;;;;;;;6.17;4.27;;;;;;;;;;5010127;28;20205;-82
2022/06/22 14:59:30;;;;;;;7.18;4.78;;;;;;;;;;5008362;28;20271;-83
2022/06/22 15:01:58;;;;;;;7.22;4.53;;;;;;;;;;5008778;28;20186;-82
2022/06/22 15:04:28;;;;;;;6.28;4.15;;;;;;;;;;5013179;28;20206;-82
2022/06/22 15:06:53;;;;;;;7.53;4.30;;;;;;;;;;5012765;28;20191;-83
2022/06/22 15:09:18;;;;;;;8.63;3.92;;;;;;;;;;5017241;28;20305;-83
2022/06/22 15:14:41;;;;;;;5.83;3.43;;;;;;;;;;5011184;28;20202;-83
2022/06/22 15:17:11;;;;;;;6.47;4.30;;;;;;;;;;5012511;28;20203;-83
2022/06/22 15:19:42;;;;;;;7.00;4.00;;;;;;;;;;5009253;28;20285;-83
2022/06/22 15:22:17;;;;;;;7.57;4.88;;;;;;;;;;5011239;28;20186;-82
2022/06/22 15:24:58;;;;;;;10.10;5.18;;;;;;;;;;5011392;28;20179;-82
2022/06/22 15:27:25;;;;;;;5.45;4.00;;;;;;;;;;5029161;28;20178;-82
2022/06/22 15:30:09;;;;;;;6.18;3.15;;;;;;;;;;5006350;28;20321;-82
2022/06/22 15:32:36;;;;;;;7.13;3.42;;;;;;;;;;5010032;28;20183;-82
2022/06/22 15:35:01;;;;;;;7.28;2.90;;;;;;;;;;5009927;28;20214;-83
2022/06/22 15:37:26;;;;;;;8.52;3.58;;;;;;;;;;5012310;28;20207;-82